Time;durP1;ratioP1;P1;durP2;ratioP2;P2;SDS_P1;SDS_P2;PMS_P1;PMS_P2;Temp;Humidity;BMP_temperature;BMP_pressure;BME280_temperature;BME280_humidity;BME280_pressure;Samples;Min_cycle;Max_cycle;Signal;HPM_P1;HPM_P2
2021/11/08 00:01:02;;;;;;;248.45;57.60;;;282.30;2278.40;;;;;;4999399;28;20030;-85
2021/11/08 00:03:34;;;;;;;258.23;58.13;;;282.50;2278.40;;;;;;4991451;28;20029;-86
2021/11/08 00:06:03;;;;;;;414.58;74.82;;;282.50;2022.40;;;;;;4988077;28;20053;-76
2021/11/08 00:08:29;;;;;;;232.77;54.80;;;307.20;2073.60;;;;;;5000053;28;20073;-78
2021/11/08 00:10:56;;;;;;;168.15;53.38;;;307.30;2304.00;;;;;;5006792;28;20478;-74
2021/11/08 00:13:23;;;;;;;208.13;48.63;;;307.20;2304.00;;;;;;5002853;28;20033;-73
2021/11/08 00:18:35;;;;;;;155.70;48.20;;;307.30;2304.00;;;;;;5006303;28;20060;-75
2021/11/08 00:21:01;;;;;;;321.70;55.97;;;307.30;2304.00;;;;;;5005572;28;20084;-85
2021/11/08 00:23:28;;;;;;;177.20;51.28;;;282.30;2201.60;;;;;;4985921;28;20034;-85
2021/11/08 00:25:56;;;;;;;288.02;54.13;;;282.30;2278.40;;;;;;5006104;28;20381;-88
2021/11/08 00:28:22;;;;;;;267.90;50.42;;;282.40;2073.60;;;;;;5005747;28;20018;-75
2021/11/08 00:30:49;;;;;;;228.27;52.55;;;282.10;2278.40;;;;;;5004515;28;20057;-87
2021/11/08 00:33:16;;;;;;;193.18;50.45;;;282.10;2278.40;;;;;;5003898;28;20014;-84
2021/11/08 00:35:50;;;;;;;231.38;52.03;;;282.20;2278.40;;;;;;5006872;28;20497;-75
2021/11/08 00:38:18;;;;;;;234.85;53.03;;;282.10;2278.40;;;;;;5004047;28;20025;-77
2021/11/08 00:40:44;;;;;;;220.50;50.42;;;282.10;2278.40;;;;;;5006196;28;20018;-76
2021/11/08 00:43:12;;;;;;;176.45;47.55;;;282.00;2278.40;;;;;;5003930;28;20058;-85
2021/11/08 00:45:38;;;;;;;148.63;45.42;;;282.10;2278.40;;;;;;5005970;28;20045;-86
2021/11/08 00:48:05;;;;;;;176.38;49.95;;;282.40;2278.40;;;;;;5006364;28;20826;-75
2021/11/08 00:50:31;;;;;;;187.88;52.00;;;282.20;2278.40;;;;;;5003631;28;20117;-75
2021/11/08 00:52:57;;;;;;;191.07;54.70;;;282.00;2278.40;;;;;;5003502;28;20049;-75
2021/11/08 00:55:25;;;;;;;191.70;54.13;;;281.90;2278.40;;;;;;5005197;28;20022;-86
2021/11/08 00:57:53;;;;;;;187.45;53.38;;;281.90;2278.40;;;;;;5002881;28;20471;-87
2021/11/08 01:00:21;;;;;;;183.07;53.20;;;282.10;2278.40;;;;;;5000010;28;20101;-87
2021/11/08 01:02:47;;;;;;;206.57;54.40;;;281.90;2278.40;;;;;;5004753;28;20014;-78
2021/11/08 01:05:15;;;;;;;199.57;54.10;;;281.90;1945.60;;;;;;5002862;28;20056;-88
2021/11/08 01:07:41;;;;;;;174.43;51.28;;;281.90;2201.60;;;;;;5005283;28;20560;-76
2021/11/08 01:10:18;;;;;;;192.10;52.95;;;282.00;2278.40;;;;;;5006105;28;20030;-78
2021/11/08 01:12:45;;;;;;;180.45;48.08;;;282.00;2278.40;;;;;;4999702;28;20018;-82
2021/11/08 01:15:11;;;;;;;194.00;51.60;;;282.00;2278.40;;;;;;5003889;28;20034;-77
2021/11/08 01:17:38;;;;;;;186.80;50.67;;;282.10;2278.40;;;;;;5003102;28;20026;-77
2021/11/08 01:20:06;;;;;;;200.65;52.67;;;282.10;2278.40;;;;;;5005509;28;20022;-75
2021/11/08 01:22:32;;;;;;;218.73;51.78;;;282.00;2278.40;;;;;;4987151;28;20032;-75
2021/11/08 01:24:59;;;;;;;205.02;53.75;;;281.90;2278.40;;;;;;5004515;28;20038;-75
2021/11/08 01:27:35;;;;;;;175.75;45.90;;;281.90;2278.40;;;;;;4992373;28;20026;-88
2021/11/08 01:30:05;;;;;;;160.27;48.30;;;281.90;2278.40;;;;;;4985396;28;20132;-84
2021/11/08 01:32:31;;;;;;;160.27;47.90;;;281.90;2278.40;;;;;;5004235;28;20061;-83
2021/11/08 01:34:58;;;;;;;184.13;52.22;;;282.10;2278.40;;;;;;5003766;28;20042;-81
2021/11/08 01:37:24;;;;;;;196.63;54.35;;;282.00;2278.40;;;;;;5004449;28;20105;-75
2021/11/08 01:39:50;;;;;;;183.55;49.92;;;281.80;2278.40;;;;;;5003383;28;20098;-86
2021/11/08 01:42:15;;;;;;;;;;;281.90;2278.40;;;;;;4985722;28;20057;-88
2021/11/08 01:44:43;;;;;;;176.05;49.17;;;281.80;2278.40;;;;;;5004409;28;20417;-86
2021/11/08 01:47:09;;;;;;;168.38;50.42;;;281.80;2278.40;;;;;;4985015;28;20037;-80
2021/11/08 01:49:36;;;;;;;178.23;52.42;;;281.80;2278.40;;;;;;4987570;28;20027;-88
2021/11/08 01:52:03;;;;;;;186.50;50.88;;;281.70;2278.40;;;;;;5002700;28;20026;-87
2021/11/08 01:54:30;;;;;;;213.38;50.67;;;281.80;2278.40;;;;;;5002484;28;20022;-88
2021/11/08 01:56:58;;;;;;;246.27;54.85;;;281.70;2278.40;;;;;;5001893;28;20019;-86
2021/11/08 01:59:24;;;;;;;169.52;50.50;;;281.70;2278.40;;;;;;4986325;28;20041;-83
2021/11/08 02:01:53;;;;;;;196.15;49.05;;;281.90;2278.40;;;;;;5002677;28;20065;-85
2021/11/08 02:04:28;;;;;;;198.95;54.65;;;281.80;2278.40;;;;;;5002232;28;20022;-87
2021/11/08 02:06:54;;;;;;;204.57;59.10;;;281.70;2278.40;;;;;;5001584;28;20018;-86
2021/11/08 02:09:20;;;;;;;327.77;81.75;;;281.70;2278.40;;;;;;5004724;28;20493;-85
2021/11/08 02:11:46;;;;;;;292.17;74.38;;;281.60;2278.40;;;;;;5001860;28;20035;-76
2021/11/08 02:14:12;;;;;;;250.30;67.45;;;281.60;2278.40;;;;;;5006317;28;20022;-80
2021/11/08 02:16:38;;;;;;;230.70;60.67;;;281.60;2176.00;;;;;;5004032;28;20041;-85
2021/11/08 02:19:05;;;;;;;259.50;57.45;;;281.80;2278.40;;;;;;5003565;28;20065;-85
2021/11/08 02:21:32;;;;;;;266.00;57.38;;;281.70;2278.40;;;;;;5002351;28;20027;-85
2021/11/08 02:24:00;;;;;;;169.20;48.13;;;281.70;2278.40;;;;;;5001980;28;20374;-78
2021/11/08 02:26:26;;;;;;;216.02;57.15;;;281.70;2278.40;;;;;;5001655;28;20054;-87
2021/11/08 02:28:53;;;;;;;209.63;53.33;;;281.60;2278.40;;;;;;5003258;28;20111;-86
2021/11/08 02:31:22;;;;;;;230.02;56.33;;;281.60;1945.60;;;;;;5006065;28;20025;-75
2021/11/08 02:33:52;;;;;;;278.67;57.13;;;281.60;2073.60;;;;;;5003677;28;20069;-76
2021/11/08 02:36:21;;;;;;;237.07;56.08;;;281.60;2278.40;;;;;;5001021;28;20044;-83
2021/11/08 02:38:50;;;;;;;233.40;53.88;;;281.70;2278.40;;;;;;5004642;28;20470;-87
2021/11/08 02:41:18;;;;;;;179.75;51.92;;;281.80;2278.40;;;;;;5001814;28;20097;-76
2021/11/08 02:43:45;;;;;;;226.30;53.03;;;282.00;2278.40;;;;;;4986307;28;20049;-76
2021/11/08 02:46:20;;;;;;;177.63;47.42;;;281.90;2278.40;;;;;;5001675;28;20050;-81
2021/11/08 02:48:49;;;;;;;190.15;50.80;;;281.90;2278.40;;;;;;5001050;28;20056;-77
2021/11/08 02:51:23;;;;;;;193.30;47.10;;;281.90;2278.40;;;;;;5002834;28;20096;-88
2021/11/08 02:53:55;;;;;;;159.55;47.63;;;282.00;2278.40;;;;;;4999139;28;20084;-81
2021/11/08 02:56:21;;;;;;;180.77;51.10;;;282.00;2278.40;;;;;;5004253;28;20038;-76
2021/11/08 02:58:47;;;;;;;176.57;48.13;;;281.90;2278.40;;;;;;5001491;28;20041;-84
2021/11/08 03:01:25;;;;;;;177.27;47.97;;;282.00;2278.40;;;;;;5001337;28;20029;-76
2021/11/08 03:03:59;;;;;;;210.73;52.60;;;281.90;2278.40;;;;;;4999393;28;20061;-78
2021/11/08 03:06:34;;;;;;;203.15;52.92;;;281.80;2278.40;;;;;;5000898;28;20030;-83
2021/11/08 03:09:11;;;;;;;175.68;48.80;;;281.90;2278.40;;;;;;5000096;28;20761;-89
2021/11/08 03:11:37;;;;;;;155.15;47.60;;;282.00;2278.40;;;;;;4994065;28;20521;-75
2021/11/08 03:14:07;;;;;;;164.02;45.75;;;281.90;2278.40;;;;;;4990390;28;20053;-75
2021/11/08 03:16:40;;;;;;;160.85;46.17;;;282.00;2278.40;;;;;;5002981;28;20030;-74
2021/11/08 03:19:31;;;;;;;171.00;48.95;;;282.10;2278.40;;;;;;5001686;28;20030;-76
2021/11/08 03:21:58;;;;;;;164.77;48.17;;;282.10;2278.40;;;;;;5002042;28;20441;-75
2021/11/08 03:27:26;;;;;;;135.33;37.70;;;282.30;2048.00;;;;;;5018934;28;20010;-74
2021/11/08 03:29:52;;;;;;;151.18;48.97;;;282.30;2278.40;;;;;;5014686;28;20162;-74
2021/11/08 03:32:20;;;;;;;145.73;45.83;;;282.40;2278.40;;;;;;5011497;28;20022;-87
2021/11/08 03:34:55;;;;;;;159.05;49.40;;;282.40;2278.40;;;;;;4991017;28;20578;-77
2021/11/08 03:37:22;;;;;;;135.40;43.25;;;282.50;2278.40;;;;;;4976681;28;20031;-80
2021/11/08 03:39:49;;;;;;;161.80;47.97;;;282.20;2278.40;;;;;;5000674;28;20485;-89
2021/11/08 03:42:16;;;;;;;140.52;47.45;;;282.50;2278.40;;;;;;5004325;28;20042;-79
2021/11/08 03:44:42;;;;;;;145.70;43.50;;;307.20;2304.00;;;;;;5001264;28;20047;-75
2021/11/08 03:47:07;;;;;;;135.55;44.25;;;282.50;2278.40;;;;;;5000761;28;20433;-76
2021/11/08 03:49:33;;;;;;;;;;;282.50;2278.40;;;;;;5003169;28;20128;-75
2021/11/08 03:52:00;;;;;;;121.88;41.97;;;282.30;2278.40;;;;;;5002280;28;20288;-86
2021/11/08 03:54:27;;;;;;;119.43;42.75;;;282.50;2278.40;;;;;;4998336;28;20022;-75
2021/11/08 03:56:53;;;;;;;128.95;45.55;;;282.40;2278.40;;;;;;5004678;28;20068;-84
2021/11/08 03:59:20;;;;;;;157.82;51.22;;;282.50;2278.40;;;;;;5006720;28;20025;-81
2021/11/08 04:01:46;;;;;;;146.50;47.80;;;282.30;2278.40;;;;;;4986815;28;20386;-79
2021/11/08 04:04:12;;;;;;;154.43;49.58;;;282.30;2278.40;;;;;;5004015;28;20061;-83
2021/11/08 04:06:41;;;;;;;;;;;282.30;2227.20;;;;;;5004671;28;20022;-87
2021/11/08 04:09:11;;;;;;;158.15;52.35;;;282.10;2278.40;;;;;;5004081;28;19914;-79
2021/11/08 04:11:39;;;;;;;150.35;49.22;;;281.90;2278.40;;;;;;5004713;28;20023;-87
2021/11/08 04:14:07;;;;;;;177.13;56.08;;;281.80;2278.40;;;;;;5004408;28;20027;-85
2021/11/08 04:16:34;;;;;;;148.48;50.35;;;281.90;2278.40;;;;;;5005858;28;20021;-84
2021/11/08 04:19:02;;;;;;;167.63;50.92;;;282.00;2278.40;;;;;;5005260;28;20037;-84
2021/11/08 04:21:30;;;;;;;158.85;51.10;;;282.00;2278.40;;;;;;5004094;28;20168;-83
2021/11/08 04:23:56;;;;;;;166.27;52.00;;;282.00;2278.40;;;;;;5004491;28;20471;-77
2021/11/08 04:26:27;;;;;;;150.43;52.03;;;281.80;2278.40;;;;;;5004789;28;20539;-81
2021/11/08 04:28:55;;;;;;;127.75;44.15;;;281.90;2278.40;;;;;;5001941;28;20510;-85
2021/11/08 04:31:22;;;;;;;146.52;47.58;;;281.90;2278.40;;;;;;5007163;28;20515;-75
2021/11/08 04:34:19;;;;;;;136.73;46.15;;;282.10;2278.40;;;;;;5004293;28;20497;-83
2021/11/08 04:54:57;;;;;;;122.47;42.67;;;281.80;2278.40;;;;;;5003129;28;20030;-82
2021/11/08 04:57:55;;;;;;;117.50;38.50;;;281.80;2278.40;;;;;;4999763;28;20018;-76
2021/11/08 05:25:00;;;;;;;97.45;39.45;;;281.80;2278.40;;;;;;5001693;28;20034;-81
2021/11/08 05:30:13;;;;;;;93.20;36.45;;;281.80;2278.40;;;;;;5004580;28;20069;-76
2021/11/08 05:32:41;;;;;;;95.00;39.28;;;281.80;2278.40;;;;;;5000905;28;20114;-76
2021/11/08 05:35:10;;;;;;;91.38;38.72;;;281.70;2176.00;;;;;;5000891;28;20394;-79
2021/11/08 05:37:41;;;;;;;92.38;37.53;;;281.70;2278.40;;;;;;4976332;28;20023;-75
2021/11/08 05:40:13;;;;;;;81.78;37.15;;;281.70;2278.40;;;;;;4998138;28;20061;-78
2021/11/08 05:42:39;;;;;;;91.65;38.28;;;281.70;2278.40;;;;;;5002687;28;20038;-78
2021/11/08 05:45:07;;;;;;;89.97;35.90;;;281.70;2278.40;;;;;;4998971;28;20038;-79
2021/11/08 05:47:33;;;;;;;93.22;39.65;;;281.60;2278.40;;;;;;4999957;28;20109;-77
2021/11/08 05:50:00;;;;;;;91.70;39.38;;;256.90;2252.80;;;;;;5002162;28;20041;-85
2021/11/08 05:52:26;;;;;;;98.72;40.38;;;281.70;2278.40;;;;;;4999205;28;20025;-84
2021/11/08 05:54:52;;;;;;;87.15;39.40;;;281.70;2278.40;;;;;;4981205;28;20048;-84
2021/11/08 06:49:25;;;;;;;112.93;56.03;;;282.10;2278.40;;;;;;5003396;28;20032;-78
2021/11/08 06:51:54;;;;;;;108.10;53.50;;;282.10;2278.40;;;;;;4999761;28;20038;-81
2021/11/08 06:54:20;;;;;;;109.93;54.83;;;282.20;2278.40;;;;;;5002088;28;20025;-83
2021/11/08 06:57:31;;;;;;;130.52;60.30;;;282.30;2278.40;;;;;;5004518;28;20019;-84
2021/11/08 06:59:35;;;;;;;116.70;58.22;;;282.20;2278.40;;;;;;4994243;28;20073;-78
2021/11/08 07:02:02;;;;;;;123.55;56.00;;;282.00;2278.40;;;;;;4984288;28;20108;-77
2021/11/08 07:04:27;;;;;;;151.93;69.28;;;282.00;1996.80;;;;;;5001977;28;20053;-85
2021/11/08 07:06:53;;;;;;;137.32;66.32;;;281.80;2278.40;;;;;;5002841;28;20053;-78
2021/11/08 07:09:19;;;;;;;;;;;281.70;2278.40;;;;;;5003607;28;20025;-81
2021/11/08 07:11:45;;;;;;;133.05;63.17;;;281.70;2278.40;;;;;;5001572;28;19905;-84
2021/11/08 07:14:11;;;;;;;134.85;65.38;;;281.70;2278.40;;;;;;5001814;28;20026;-77
2021/11/08 07:16:38;;;;;;;127.80;59.97;;;281.80;2278.40;;;;;;5004288;28;20101;-74
2021/11/08 07:19:06;;;;;;;128.98;62.03;;;281.70;2278.40;;;;;;5006868;28;20065;-75
2021/11/08 07:21:32;;;;;;;133.82;64.85;;;281.70;2278.40;;;;;;5000369;28;20098;-74
2021/11/08 07:23:58;;;;;;;124.72;58.65;;;281.70;2278.40;;;;;;5009478;28;20109;-74
2021/11/08 07:26:24;;;;;;;124.47;60.50;;;281.80;2278.40;;;;;;5002034;28;20049;-77
2021/11/08 07:28:50;;;;;;;121.70;55.40;;;281.80;2278.40;;;;;;4999843;28;20018;-76
2021/11/08 07:31:16;;;;;;;113.82;55.72;;;281.90;2278.40;;;;;;5000514;28;20076;-74
2021/11/08 07:33:42;;;;;;;107.28;52.22;;;282.10;2278.40;;;;;;5006246;28;20025;-81
2021/11/08 07:36:08;;;;;;;101.63;49.78;;;282.00;2278.40;;;;;;5006990;28;20025;-76
2021/11/08 07:38:35;;;;;;;113.05;54.10;;;281.90;2278.40;;;;;;5002816;28;20027;-74
2021/11/08 07:41:03;;;;;;;112.13;54.65;;;281.80;2278.40;;;;;;4986863;28;20109;-75
2021/11/08 07:43:29;;;;;;;88.88;49.20;;;282.00;2278.40;;;;;;5006837;28;20026;-84
2021/11/08 07:45:54;;;;;;;79.75;43.10;;;282.10;1945.60;;;;;;4997523;28;20049;-80
2021/11/08 07:48:21;;;;;;;94.75;47.15;;;282.10;2278.40;;;;;;5004892;28;20026;-83
2021/11/08 07:50:48;;;;;;;93.80;48.70;;;282.10;2278.40;;;;;;5005661;28;20057;-83
2021/11/08 07:53:13;;;;;;;98.53;50.35;;;282.00;2278.40;;;;;;5004433;28;20023;-83
2021/11/08 07:55:39;;;;;;;92.93;48.70;;;282.00;2278.40;;;;;;5001258;28;20045;-83
2021/11/08 07:58:06;;;;;;;100.85;52.90;;;282.10;2278.40;;;;;;5005486;28;20037;-84
2021/11/08 08:00:34;;;;;;;105.15;51.40;;;282.10;2278.40;;;;;;4998579;28;20030;-83
2021/11/08 08:03:01;;;;;;;115.72;56.55;;;282.10;2278.40;;;;;;5006334;28;20026;-82
2021/11/08 08:05:27;;;;;;;120.95;59.47;;;282.10;2278.40;;;;;;5004128;28;20023;-83
2021/11/08 08:07:53;;;;;;;111.40;55.08;;;282.10;2278.40;;;;;;5007363;28;20015;-81
2021/11/08 08:10:19;;;;;;;114.05;59.90;;;282.10;2278.40;;;;;;5006885;28;20040;-80
2021/11/08 08:12:44;;;;;;;;;;;282.20;1920.00;;;;;;5007242;28;20019;-81
2021/11/08 08:15:10;;;;;;;116.15;53.83;;;282.30;2278.40;;;;;;4996571;28;19939;-80
2021/11/08 08:17:37;;;;;;;109.93;53.45;;;282.20;2278.40;;;;;;5003894;28;20109;-85
2021/11/08 08:20:10;;;;;;;104.97;52.55;;;282.10;2278.40;;;;;;4999582;28;20537;-80
2021/11/08 08:22:36;;;;;;;107.18;53.00;;;282.00;2278.40;;;;;;5007023;28;20045;-81
2021/11/08 08:25:02;;;;;;;98.20;47.90;;;282.00;2278.40;;;;;;5001521;28;20053;-82
2021/11/08 08:27:28;;;;;;;104.32;50.10;;;282.20;2278.40;;;;;;5002014;28;20026;-81
2021/11/08 08:29:53;;;;;;;105.07;54.08;;;281.90;2278.40;;;;;;5003527;28;20038;-81
2021/11/08 08:32:19;;;;;;;;;;;281.80;2278.40;;;;;;4987306;28;20069;-79
2021/11/08 08:34:45;;;;;;;114.80;53.95;;;281.90;2278.40;;;;;;4986306;28;19906;-78
2021/11/08 08:37:11;;;;;;;;;;;281.80;2278.40;;;;;;5005981;28;20081;-85
2021/11/08 08:39:37;;;;;;;106.90;50.30;;;281.70;2278.40;;;;;;4998459;28;19934;-84
2021/11/08 08:42:04;;;;;;;103.82;49.60;;;281.70;2278.40;;;;;;5000712;28;20026;-83
2021/11/08 08:44:31;;;;;;;91.10;47.65;;;281.70;2278.40;;;;;;4985928;28;20428;-83
2021/11/08 08:46:57;;;;;;;94.22;50.80;;;281.70;2278.40;;;;;;5003233;28;20040;-83
2021/11/08 08:49:23;;;;;;;99.53;50.85;;;281.80;2278.40;;;;;;5004264;28;20038;-82
2021/11/08 08:51:49;;;;;;;;;;;281.70;2278.40;;;;;;5005081;28;20022;-82
2021/11/08 08:54:15;;;;;;;83.90;47.03;;;281.90;2278.40;;;;;;5003709;28;19913;-84
2021/11/08 08:56:41;;;;;;;87.05;44.50;;;281.90;2278.40;;;;;;4994086;28;20035;-84
2021/11/08 08:59:07;;;;;;;84.20;43.85;;;281.90;2278.40;;;;;;4995175;28;20046;-82
2021/11/08 09:01:33;;;;;;;84.25;45.30;;;281.90;2278.40;;;;;;4993831;28;20018;-81
2021/11/08 09:03:59;;;;;;;82.20;41.88;;;281.90;2278.40;;;;;;5003491;28;20097;-83
2021/11/08 09:06:26;;;;;;;88.40;44.90;;;281.90;2278.40;;;;;;4990177;28;20113;-81
2021/11/08 09:08:53;;;;;;;75.47;42.80;;;281.90;2278.40;;;;;;4995121;28;20537;-83
2021/11/08 09:11:19;;;;;;;78.25;43.63;;;281.80;2099.20;;;;;;4977670;28;20038;-83
2021/11/08 09:13:48;;;;;;;73.50;40.63;;;282.00;2278.40;;;;;;4993464;28;20078;-77
2021/11/08 09:16:13;;;;;;;71.55;38.15;;;282.00;2176.00;;;;;;4985478;28;20367;-80
2021/11/08 09:18:45;;;;;;;80.43;41.05;;;282.00;2278.40;;;;;;5003061;28;20049;-83
2021/11/08 09:21:12;;;;;;;87.88;47.42;;;282.10;2278.40;;;;;;4985309;28;20027;-79
2021/11/08 09:23:39;;;;;;;76.82;44.97;;;282.10;2278.40;;;;;;5002723;28;20025;-81
2021/11/08 09:26:07;;;;;;;86.20;46.28;;;282.10;2278.40;;;;;;4994292;28;20015;-80
2021/11/08 09:28:33;;;;;;;89.43;48.22;;;282.30;2278.40;;;;;;4993969;28;20033;-82
2021/11/08 09:30:59;;;;;;;82.85;46.42;;;282.40;2278.40;;;;;;4995720;28;20061;-81
2021/11/08 09:33:26;;;;;;;89.78;48.17;;;282.30;2278.40;;;;;;4994061;28;20046;-76
2021/11/08 09:35:57;;;;;;;82.40;45.38;;;282.50;2278.40;;;;;;4994114;28;20029;-78
2021/11/08 09:38:24;;;;;;;82.70;45.38;;;282.40;2278.40;;;;;;4979058;28;20402;-81
2021/11/08 09:40:50;;;;;;;83.95;45.60;;;282.50;2278.40;;;;;;4996458;28;20105;-79
2021/11/08 09:43:20;;;;;;;83.95;48.22;;;282.30;2278.40;;;;;;4997679;28;20101;-85
2021/11/08 09:45:46;;;;;;;90.32;47.50;;;282.20;2278.40;;;;;;4976130;28;20125;-81
2021/11/08 09:48:12;;;;;;;87.38;46.90;;;282.30;2278.40;;;;;;4993612;28;20054;-80
2021/11/08 09:50:41;;;;;;;89.57;47.35;;;282.20;2278.40;;;;;;4992984;28;20042;-79
2021/11/08 09:53:08;;;;;;;95.63;52.05;;;282.20;2278.40;;;;;;4982694;28;20054;-84
2021/11/08 09:55:37;;;;;;;98.95;50.05;;;282.30;2278.40;;;;;;4956823;28;20035;-85
2021/11/08 09:58:04;;;;;;;91.75;50.22;;;282.20;2278.40;;;;;;4966925;28;20035;-84
2021/11/08 10:00:36;;;;;;;81.30;44.95;;;282.30;2278.40;;;;;;4994125;28;20058;-83
2021/11/08 10:03:05;;;;;;;75.60;44.08;;;282.40;2278.40;;;;;;4994288;28;20105;-77
2021/11/08 10:05:36;;;;;;;83.22;44.15;;;282.50;2278.40;;;;;;4994417;28;20024;-75
2021/11/08 10:08:02;;;;;;;89.18;51.35;;;282.50;2278.40;;;;;;4976525;28;20030;-76
2021/11/08 10:10:30;;;;;;;104.80;57.45;;;282.50;2278.40;;;;;;4994477;28;20070;-79
2021/11/08 10:13:18;;;;;;;90.88;53.55;;;282.40;2278.40;;;;;;4994651;28;20026;-79
2021/11/08 10:15:47;;;;;;;90.88;49.85;;;282.50;2278.40;;;;;;4995175;28;20069;-78
2021/11/08 10:18:15;;;;;;;69.40;38.53;;;307.30;2304.00;;;;;;4992738;28;20032;-75
2021/11/08 10:20:44;;;;;;;60.92;36.72;;;307.30;2304.00;;;;;;5020764;28;20013;-77
2021/11/08 10:23:17;;;;;;;71.45;40.00;;;307.40;2304.00;;;;;;5009627;28;20020;-76
2021/11/08 10:25:44;;;;;;;67.35;39.15;;;307.50;2304.00;;;;;;5005044;28;20068;-84
2021/11/08 10:28:20;;;;;;;74.82;42.47;;;307.40;2304.00;;;;;;5002448;28;20377;-85
2021/11/08 10:30:48;;;;;;;72.07;41.30;;;307.40;2304.00;;;;;;4985286;28;20037;-84
2021/11/08 10:33:19;;;;;;;68.97;39.63;;;307.40;2304.00;;;;;;5002141;28;20041;-84
2021/11/08 10:35:49;;;;;;;69.75;36.85;;;307.30;2304.00;;;;;;5004918;28;20022;-82
2021/11/08 10:38:28;;;;;;;63.85;36.95;;;282.50;2278.40;;;;;;5001122;28;20018;-82
2021/11/08 10:41:18;;;;;;;65.85;36.70;;;282.40;2278.40;;;;;;4983768;28;20030;-83
2021/11/08 10:43:53;;;;;;;63.45;36.38;;;282.50;2278.40;;;;;;4997494;28;20024;-87
2021/11/08 10:46:35;;;;;;;64.72;34.40;;;282.50;2278.40;;;;;;4999221;28;20121;-84
2021/11/08 10:49:05;;;;;;;66.32;36.33;;;282.50;2278.40;;;;;;5000531;28;20109;-78
2021/11/08 10:51:32;;;;;;;63.42;36.30;;;307.30;2304.00;;;;;;5001288;28;20111;-79
2021/11/08 10:54:02;;;;;;;63.03;35.13;;;282.50;2278.40;;;;;;5003621;28;20458;-84
2021/11/08 10:56:32;;;;;;;58.30;32.67;;;282.50;2278.40;;;;;;5006551;28;20101;-83
2021/11/08 10:59:01;;;;;;;48.95;27.80;;;282.50;2278.40;;;;;;4986973;28;20060;-84
2021/11/08 11:01:32;;;;;;;57.30;33.22;;;282.30;2278.40;;;;;;5001373;28;20026;-85
2021/11/08 11:04:00;;;;;;;55.20;31.27;;;282.40;2278.40;;;;;;5000894;28;20022;-83
2021/11/08 11:06:35;;;;;;;62.67;32.65;;;282.50;2278.40;;;;;;4981935;28;20026;-87
2021/11/08 11:09:09;;;;;;;51.70;29.42;;;307.30;2304.00;;;;;;4969918;28;20437;-84
2021/11/08 11:11:35;;;;;;;58.67;33.30;;;307.20;2304.00;;;;;;5006910;28;20037;-85
2021/11/08 11:14:01;;;;;;;80.65;29.35;;;307.20;2304.00;;;;;;5005438;28;20042;-84
2021/11/08 11:16:47;;;;;;;45.15;28.48;;;282.50;2278.40;;;;;;4997188;28;20081;-89
2021/11/08 11:19:16;;;;;;;52.33;29.23;;;282.50;2278.40;;;;;;4997086;28;20061;-76
2021/11/08 11:21:59;;;;;;;51.50;29.50;;;282.40;2278.40;;;;;;4979593;28;20504;-80
2021/11/08 11:25:07;;;;;;;39.92;23.33;;;282.40;2278.40;;;;;;4991140;28;20038;-88
2021/11/08 11:27:47;;;;;;;40.20;24.75;;;282.50;2278.40;;;;;;4935083;29;20499;-85
2021/11/08 11:30:21;;;;;;;42.58;23.15;;;282.40;2278.40;;;;;;4922247;29;20044;-77
2021/11/08 11:33:08;;;;;;;37.78;21.95;;;282.30;2278.40;;;;;;4925129;29;20075;-84
2021/11/08 11:35:46;;;;;;;48.53;23.17;;;282.30;2278.40;;;;;;4932277;29;20494;-84
2021/11/08 11:38:28;;;;;;;52.75;25.50;;;282.30;2278.40;;;;;;4936971;29;20123;-77
2021/11/08 11:41:03;;;;;;;38.08;23.30;;;282.30;2278.40;;;;;;4914493;29;20524;-77
2021/11/08 11:43:37;;;;;;;38.67;22.80;;;282.30;2278.40;;;;;;4917938;29;20048;-80
2021/11/08 11:46:06;;;;;;;45.65;26.42;;;282.40;2278.40;;;;;;4935860;29;20135;-80
2021/11/08 11:48:35;;;;;;;37.58;24.10;;;282.50;2278.40;;;;;;4936648;29;20020;-85
2021/11/08 11:51:01;;;;;;;40.22;24.13;;;282.50;2278.40;;;;;;4920670;29;20058;-88
2021/11/08 11:53:30;;;;;;;49.67;27.60;;;282.50;2278.40;;;;;;4936724;29;20027;-77
2021/11/08 11:55:56;;;;;;;34.85;21.00;;;282.50;2278.40;;;;;;4936622;29;20032;-75
2021/11/08 11:58:22;;;;;;;36.65;21.75;;;282.40;2278.40;;;;;;4948002;29;20043;-77
2021/11/08 12:00:49;;;;;;;;;;;282.40;2278.40;;;;;;4960645;28;20482;-88
2021/11/08 12:03:14;;;;;;;;;;;282.50;2278.40;;;;;;4975398;28;19953;-76
2021/11/08 12:05:44;;;;;;;30.02;15.88;;;282.30;2278.40;;;;;;4987147;28;19914;-87
2021/11/08 12:08:12;;;;;;;32.45;18.50;;;282.50;2278.40;;;;;;4981230;28;20041;-82
2021/11/08 12:10:50;;;;;;;31.08;17.33;;;282.40;2278.40;;;;;;4984201;28;20058;-84
2021/11/08 12:13:22;;;;;;;32.95;19.08;;;282.40;2278.40;;;;;;4984991;28;20125;-83
2021/11/08 12:15:51;;;;;;;35.20;18.85;;;282.50;2278.40;;;;;;4979842;28;20077;-80
2021/11/08 12:18:19;;;;;;;33.47;17.27;;;282.50;2278.40;;;;;;4984159;28;20023;-82
2021/11/08 12:20:54;;;;;;;31.20;18.30;;;282.50;2278.40;;;;;;4978861;28;20022;-82
2021/11/08 12:23:30;;;;;;;36.07;17.73;;;282.50;2278.40;;;;;;4975212;28;20475;-81
2021/11/08 12:25:56;;;;;;;31.33;16.00;;;307.30;2304.00;;;;;;4976494;28;20294;-83
2021/11/08 12:28:25;;;;;;;25.42;15.10;;;307.30;2304.00;;;;;;4976205;28;20082;-78
2021/11/08 12:30:58;;;;;;;31.55;17.70;;;307.30;2304.00;;;;;;4976503;28;20062;-80
2021/11/08 12:33:32;;;;;;;31.02;16.48;;;307.30;2304.00;;;;;;4976396;28;20081;-80
2021/11/08 12:36:13;;;;;;;28.05;16.60;;;307.40;2304.00;;;;;;4974459;28;20038;-80
2021/11/08 12:38:54;;;;;;;25.42;15.32;;;307.40;2304.00;;;;;;4976277;28;20112;-77
2021/11/08 12:41:32;;;;;;;28.92;15.48;;;307.50;2304.00;;;;;;4976317;28;20031;-76
2021/11/08 12:44:05;;;;;;;27.30;14.02;;;307.60;2304.00;;;;;;4976899;28;20031;-77
2021/11/08 12:46:39;;;;;;;27.42;15.13;;;307.60;2304.00;;;;;;4995369;28;20038;-79
2021/11/08 12:49:09;;;;;;;21.83;13.32;;;307.50;2304.00;;;;;;4995354;28;20018;-76
2021/11/08 12:51:36;;;;;;;36.70;16.88;;;307.60;2304.00;;;;;;4979396;28;20034;-82
2021/11/08 12:54:10;;;;;;;26.92;14.90;;;307.60;2304.00;;;;;;4975689;28;20027;-78
2021/11/08 12:56:43;;;;;;;38.13;18.33;;;307.50;2304.00;;;;;;4987416;28;20490;-90
2021/11/08 12:59:24;;;;;;;26.80;13.63;;;307.50;2304.00;;;;;;4995529;28;20359;-81
2021/11/08 13:02:09;;;;;;;27.80;15.10;;;307.50;2304.00;;;;;;4977628;28;20126;-79
2021/11/08 13:04:49;;;;;;;24.25;14.05;;;307.70;2304.00;;;;;;4994752;28;20054;-81
2021/11/08 13:07:18;;;;;;;37.95;20.23;;;307.60;2304.00;;;;;;4994464;28;20057;-83
2021/11/08 13:09:47;;;;;;;30.55;16.73;;;307.60;2304.00;;;;;;4976368;28;20042;-82
2021/11/08 13:12:33;;;;;;;28.00;15.00;;;307.60;2304.00;;;;;;5001423;28;20027;-79
2021/11/08 13:15:08;;;;;;;32.83;16.63;;;307.50;2304.00;;;;;;4994531;28;20026;-76
2021/11/08 13:17:55;;;;;;;40.58;18.88;;;307.50;2304.00;;;;;;4991729;28;20280;-87
2021/11/08 13:20:25;;;;;;;30.48;15.48;;;307.60;2304.00;;;;;;4994299;28;20045;-79
2021/11/08 13:22:55;;;;;;;23.85;12.23;;;307.50;2304.00;;;;;;4977007;28;20382;-80
2021/11/08 13:25:23;;;;;;;27.73;15.27;;;307.50;2304.00;;;;;;4977013;28;20049;-76
2021/11/08 13:27:53;;;;;;;33.75;16.63;;;307.30;2304.00;;;;;;4994202;28;20387;-79
2021/11/08 13:30:31;;;;;;;31.42;16.98;;;307.50;2304.00;;;;;;4993294;28;20035;-83
2021/11/08 13:32:56;;;;;;;40.63;19.50;;;307.50;2304.00;;;;;;4994427;28;20054;-80
2021/11/08 13:35:25;;;;;;;39.95;20.00;;;307.50;2304.00;;;;;;4994493;28;20057;-76
2021/11/08 13:38:07;;;;;;;24.98;15.10;;;307.50;2304.00;;;;;;4994182;28;20022;-80
2021/11/08 13:40:41;;;;;;;25.60;14.40;;;307.40;2304.00;;;;;;4994052;28;20023;-87
2021/11/08 13:43:21;;;;;;;29.80;14.13;;;307.50;2304.00;;;;;;4994498;28;20029;-76
2021/11/08 13:45:57;;;;;;;22.08;11.68;;;307.40;2304.00;;;;;;4989165;28;20046;-82
2021/11/08 13:48:29;;;;;;;21.15;11.30;;;307.40;2304.00;;;;;;4994358;28;20045;-85
2021/11/08 13:51:01;;;;;;;25.75;12.18;;;307.30;2304.00;;;;;;4995018;28;20050;-83
2021/11/08 13:53:32;;;;;;;25.05;11.88;;;307.30;2304.00;;;;;;5003840;28;20062;-78